createdAt,value
2024-02-02T00:01:58.148Z,12.65
2024-02-02T00:04:25.314Z,12.43
2024-02-02T00:06:52.451Z,12.93
2024-02-02T00:09:21.364Z,12.35
2024-02-02T00:11:48.366Z,10.55
2024-02-02T00:14:16.347Z,16.00
2024-02-02T00:16:43.773Z,12.85
2024-02-02T00:19:11.059Z,13.68
2024-02-02T00:21:38.156Z,12.00
2024-02-02T00:24:05.430Z,15.77
2024-02-02T00:26:32.722Z,11.02
2024-02-02T00:28:59.678Z,11.48
2024-02-02T00:31:27.039Z,14.18
2024-02-02T00:33:54.769Z,12.85
2024-02-02T00:36:22.119Z,11.60
2024-02-02T00:38:49.282Z,12.38
2024-02-02T00:41:16.292Z,12.25
2024-02-02T00:43:43.317Z,13.05
2024-02-02T00:46:10.527Z,11.45
2024-02-02T00:48:39.468Z,13.13
2024-02-02T00:51:06.803Z,12.13
2024-02-02T00:53:33.820Z,10.57
2024-02-02T00:56:01.386Z,11.60
2024-02-02T00:58:30.167Z,9.13
2024-02-02T01:00:57.170Z,10.63
2024-02-02T01:03:24.270Z,12.57
2024-02-02T01:05:51.356Z,11.07
2024-02-02T01:08:18.391Z,12.73
2024-02-02T01:10:45.509Z,15.80
2024-02-02T01:13:12.601Z,10.90
2024-02-02T01:15:39.783Z,12.68
2024-02-02T01:18:09.834Z,14.07
2024-02-02T01:20:37.460Z,13.43
2024-02-02T01:23:04.581Z,13.40
2024-02-02T01:25:31.653Z,13.73
2024-02-02T01:27:58.653Z,11.23
2024-02-02T01:30:27.693Z,17.30
2024-02-02T01:32:55.624Z,14.77
2024-02-02T01:35:22.998Z,12.77
2024-02-02T01:37:50.121Z,11.07
2024-02-02T01:40:18.033Z,11.20
2024-02-02T01:42:45.107Z,11.02
2024-02-02T01:45:12.501Z,8.55
2024-02-02T01:47:39.723Z,11.07
2024-02-02T01:50:09.002Z,10.20
2024-02-02T01:52:36.040Z,10.60
2024-02-02T01:55:03.898Z,11.25
2024-02-02T01:57:30.979Z,11.55
2024-02-02T01:59:58.049Z,7.32
2024-02-02T02:02:26.317Z,14.80
2024-02-02T02:04:55.629Z,8.00
2024-02-02T02:07:24.108Z,8.68
2024-02-02T02:09:51.143Z,9.52
2024-02-02T02:12:18.265Z,11.00
2024-02-02T02:14:45.353Z,13.77
2024-02-02T02:17:12.360Z,9.02
2024-02-02T02:19:40.831Z,8.93
2024-02-02T02:22:08.003Z,11.82
2024-02-02T02:24:35.075Z,14.32
2024-02-02T02:27:02.375Z,13.23
2024-02-02T02:29:29.471Z,9.68
2024-02-02T02:31:56.993Z,13.55
2024-02-02T02:34:28.519Z,12.20
2024-02-02T02:36:56.063Z,9.88
2024-02-02T02:39:23.639Z,15.07
2024-02-02T02:41:50.943Z,10.38
2024-02-02T02:44:18.035Z,15.85
2024-02-02T02:46:45.109Z,14.93
2024-02-02T02:49:12.269Z,11.40
2024-02-02T02:51:40.333Z,7.90
2024-02-02T02:54:07.337Z,11.95
2024-02-02T02:56:34.553Z,12.13
2024-02-02T02:59:02.828Z,8.88
2024-02-02T03:01:30.350Z,8.90
2024-02-02T03:03:57.478Z,13.88
2024-02-02T03:06:24.970Z,13.57
2024-02-02T03:08:52.146Z,10.15
2024-02-02T03:11:19.235Z,12.20
2024-02-02T03:13:46.436Z,11.57
2024-02-02T03:16:13.475Z,13.38
2024-02-02T03:18:42.962Z,10.93
2024-02-02T03:21:12.674Z,11.70
2024-02-02T03:23:39.762Z,13.82
2024-02-02T03:26:07.674Z,18.33
2024-02-02T03:28:35.267Z,15.43
2024-02-02T03:31:04.419Z,15.88
2024-02-02T03:33:32.028Z,11.68
2024-02-02T03:35:59.423Z,14.18
2024-02-02T03:38:26.603Z,16.90
2024-02-02T03:40:54.797Z,12.02
2024-02-02T03:43:22.141Z,14.63
2024-02-02T03:45:49.156Z,13.88
2024-02-02T03:48:16.239Z,16.67
2024-02-02T03:50:43.351Z,16.08
2024-02-02T03:53:10.457Z,15.38
2024-02-02T03:55:38.752Z,12.25
2024-02-02T03:58:07.166Z,12.07
2024-02-02T04:00:34.371Z,20.30
2024-02-02T04:03:01.624Z,16.25
2024-02-02T04:05:29.673Z,11.23
2024-02-02T04:07:56.871Z,13.45
2024-02-02T04:10:23.882Z,17.23
2024-02-02T04:12:50.904Z,16.75
2024-02-02T04:15:17.981Z,16.65
2024-02-02T04:17:45.087Z,16.42
2024-02-02T04:20:12.421Z,13.55
2024-02-02T04:22:41.922Z,13.98
2024-02-02T04:25:09.262Z,12.15
2024-02-02T04:27:38.312Z,17.50
2024-02-02T04:30:07.046Z,19.55
2024-02-02T04:32:34.233Z,14.55
2024-02-02T04:35:01.273Z,21.95
2024-02-02T04:37:28.832Z,13.23
2024-02-02T04:39:56.157Z,16.90
2024-02-02T04:42:23.217Z,18.50
2024-02-02T04:44:50.297Z,13.85
2024-02-02T04:47:17.452Z,14.23
2024-02-02T04:49:44.588Z,16.83
2024-02-02T04:52:11.787Z,12.98
2024-02-02T04:54:40.809Z,22.27
2024-02-02T04:57:07.986Z,12.68
2024-02-02T04:59:35.041Z,13.35
2024-02-02T05:02:04.865Z,17.17
2024-02-02T05:04:33.569Z,18.20
2024-02-02T05:07:01.104Z,15.70
2024-02-02T05:09:29.737Z,20.20
2024-02-02T05:11:57.445Z,14.63
2024-02-02T05:14:24.845Z,16.77
2024-02-02T05:16:51.811Z,19.10
2024-02-02T05:19:18.917Z,17.33
2024-02-02T05:21:45.960Z,21.23
2024-02-02T05:24:26.221Z,20.02
2024-02-02T05:27:00.591Z,18.10
2024-02-02T05:29:28.696Z,15.63
2024-02-02T05:31:57.480Z,21.48
2024-02-02T05:34:24.612Z,20.65
2024-02-02T05:36:51.733Z,18.90
2024-02-02T05:39:19.171Z,25.88
2024-02-02T05:41:46.785Z,27.23
2024-02-02T05:44:13.910Z,21.30
2024-02-02T05:46:41.020Z,23.63
2024-02-02T05:49:08.272Z,17.58
2024-02-02T05:51:35.575Z,24.20
2024-02-02T05:54:02.689Z,17.75
2024-02-02T05:56:31.095Z,18.30
2024-02-02T05:58:58.062Z,19.90
2024-02-02T06:01:25.150Z,16.70
2024-02-02T06:03:52.569Z,16.42
2024-02-02T06:06:19.655Z,16.05
2024-02-02T06:08:46.849Z,28.17
2024-02-02T06:11:13.849Z,24.52
2024-02-02T06:13:41.985Z,17.63
2024-02-02T06:16:09.748Z,17.55
2024-02-02T06:18:37.325Z,16.65
2024-02-02T06:21:06.040Z,19.10
2024-02-02T06:23:33.965Z,10.90
2024-02-02T06:26:02.915Z,14.75
2024-02-02T06:28:29.977Z,22.50
2024-02-02T06:30:57.162Z,22.30
2024-02-02T06:33:24.310Z,15.13
2024-02-02T06:35:51.441Z,16.73
2024-02-02T06:38:18.548Z,17.23
2024-02-02T06:40:45.652Z,15.52
2024-02-02T06:43:13.076Z,18.63
2024-02-02T06:45:48.711Z,16.88
2024-02-02T06:48:16.877Z,18.02
2024-02-02T06:50:45.872Z,13.15
2024-02-02T06:53:13.087Z,13.80
2024-02-02T06:55:40.123Z,12.88
2024-02-02T06:58:35.561Z,13.77
2024-02-02T07:01:03.674Z,14.88
2024-02-02T07:03:33.455Z,21.20
2024-02-02T07:06:01.360Z,17.42
2024-02-02T07:08:28.506Z,16.48
2024-02-02T07:11:13.441Z,15.90
2024-02-02T07:14:01.245Z,19.63
2024-02-02T07:16:30.980Z,20.65
2024-02-02T07:18:59.328Z,23.45
2024-02-02T07:21:32.383Z,20.58
2024-02-02T07:24:00.603Z,21.67
2024-02-02T07:26:38.722Z,13.25
2024-02-02T07:29:09.599Z,17.17
2024-02-02T07:31:39.676Z,19.67
2024-02-02T07:34:32.534Z,17.23
2024-02-02T07:36:59.820Z,19.23
2024-02-02T07:39:32.827Z,19.13
2024-02-02T07:42:01.866Z,24.50
2024-02-02T07:44:29.334Z,17.25
2024-02-02T07:46:58.858Z,22.75
2024-02-02T07:49:26.454Z,17.90
2024-02-02T07:52:04.723Z,22.30
2024-02-02T07:54:39.906Z,20.70
2024-02-02T07:57:07.207Z,16.15
2024-02-02T07:59:34.478Z,16.83
2024-02-02T08:02:08.186Z,17.85
2024-02-02T08:04:35.490Z,20.35
2024-02-02T08:07:02.566Z,18.40
2024-02-02T08:09:29.828Z,15.10
2024-02-02T08:11:56.862Z,16.33
2024-02-02T08:14:24.082Z,20.20
2024-02-02T08:16:51.264Z,17.73
2024-02-02T08:19:19.288Z,22.45
2024-02-02T08:21:46.548Z,23.10
2024-02-02T08:24:13.548Z,21.25
2024-02-02T08:26:40.603Z,16.55
2024-02-02T08:29:07.877Z,20.52
2024-02-02T08:31:35.018Z,13.73
2024-02-02T08:34:02.310Z,15.05
2024-02-02T08:36:30.624Z,20.58
2024-02-02T08:38:57.897Z,15.25
2024-02-02T08:41:25.185Z,16.45
2024-02-02T08:43:52.243Z,18.50
2024-02-02T08:46:23.276Z,17.05
2024-02-02T08:48:53.892Z,16.55
2024-02-02T08:51:25.543Z,18.20
2024-02-02T08:54:16.871Z,19.38
2024-02-02T08:56:52.148Z,15.73
2024-02-02T08:59:36.486Z,18.30
2024-02-02T09:02:07.850Z,20.23
2024-02-02T09:05:00.206Z,13.77
2024-02-02T09:07:27.322Z,13.45
2024-02-02T09:09:54.412Z,12.77
2024-02-02T09:12:27.218Z,22.50
2024-02-02T09:14:54.303Z,19.38
2024-02-02T09:17:21.953Z,18.45
2024-02-02T09:19:51.858Z,27.77
2024-02-02T09:22:19.535Z,16.65
2024-02-02T09:24:48.987Z,14.50
2024-02-02T09:27:22.222Z,18.40
2024-02-02T09:29:52.057Z,12.73
2024-02-02T09:32:19.227Z,15.15
2024-02-02T09:34:47.740Z,18.00
2024-02-02T09:37:29.568Z,18.80
2024-02-02T09:39:58.405Z,16.02
2024-02-02T09:43:03.853Z,17.98
2024-02-02T09:45:50.357Z,15.65
2024-02-02T09:51:32.937Z,14.63
2024-02-02T09:54:06.525Z,19.58
2024-02-02T09:56:48.542Z,15.95
2024-02-02T09:59:30.665Z,12.80
2024-02-02T10:02:36.147Z,13.55
2024-02-02T10:05:28.777Z,11.90
2024-02-02T10:08:13.695Z,18.58
2024-02-02T10:11:25.730Z,19.83
2024-02-02T10:14:13.065Z,14.73
2024-02-02T10:17:01.708Z,13.98
2024-02-02T10:19:53.871Z,15.20
2024-02-02T10:22:27.025Z,17.65
2024-02-02T10:25:00.287Z,15.00
2024-02-02T10:27:43.907Z,16.63
2024-02-02T10:30:44.277Z,12.85
2024-02-02T10:33:17.882Z,11.13
2024-02-02T10:36:20.322Z,11.65
2024-02-02T10:39:19.447Z,13.38
2024-02-02T10:42:09.039Z,10.75
2024-02-02T10:44:45.641Z,14.82
2024-02-02T10:47:32.309Z,13.98
2024-02-02T10:50:19.616Z,10.98
2024-02-02T10:52:52.016Z,17.40
2024-02-02T10:55:45.227Z,19.42
2024-02-02T10:58:49.271Z,19.77
2024-02-02T11:01:41.150Z,14.23
2024-02-02T11:04:24.819Z,19.58
2024-02-02T11:07:07.260Z,17.48
2024-02-02T11:10:01.631Z,11.18
2024-02-02T11:12:59.132Z,13.20
2024-02-02T11:18:36.329Z,12.82
2024-02-02T11:21:42.764Z,11.98
2024-02-02T11:24:36.639Z,12.23
2024-02-02T11:27:15.284Z,13.23
2024-02-02T11:30:07.725Z,11.82
2024-02-02T11:32:56.870Z,10.80
2024-02-02T11:35:48.017Z,10.77
2024-02-02T11:38:56.319Z,11.85
2024-02-02T11:41:28.507Z,10.45
2024-02-02T11:43:57.612Z,11.63
2024-02-02T11:46:28.532Z,11.95
2024-02-02T11:49:08.135Z,9.82
2024-02-02T11:51:37.773Z,15.40
2024-02-02T11:54:19.556Z,8.43
2024-02-02T11:56:51.614Z,9.85
2024-02-02T11:59:28.623Z,8.98
2024-02-02T12:02:18.051Z,7.43
2024-02-02T12:04:54.374Z,9.27
2024-02-02T12:07:52.468Z,7.13
2024-02-02T12:10:23.860Z,8.43
2024-02-02T12:13:04.690Z,8.05
2024-02-02T12:15:31.891Z,8.10
2024-02-02T12:18:01.227Z,5.88
2024-02-02T12:20:30.976Z,6.88
2024-02-02T12:22:58.168Z,10.02
2024-02-02T12:25:26.366Z,8.93
2024-02-02T12:27:54.471Z,7.22
2024-02-02T12:30:23.186Z,6.60
2024-02-02T12:32:58.104Z,6.18
2024-02-02T12:35:27.370Z,7.82
2024-02-02T12:37:54.816Z,6.50
2024-02-02T12:40:23.608Z,7.18
2024-02-02T12:42:51.814Z,7.60
2024-02-02T12:45:21.814Z,12.98
2024-02-02T12:47:49.417Z,6.22
2024-02-02T12:50:19.626Z,10.55
2024-02-02T12:52:48.176Z,7.05
2024-02-02T12:55:15.792Z,5.57
2024-02-02T12:57:43.191Z,6.97
2024-02-02T13:00:15.779Z,7.78
2024-02-02T13:02:44.651Z,7.50
2024-02-02T13:05:13.584Z,8.18
2024-02-02T13:07:42.511Z,12.13
2024-02-02T13:10:12.067Z,6.50
2024-02-02T13:12:51.017Z,7.60
2024-02-02T13:15:23.097Z,7.18
2024-02-02T13:18:01.871Z,7.78
2024-02-02T13:20:34.276Z,8.88
2024-02-02T13:23:11.561Z,8.27
2024-02-02T13:25:42.050Z,7.82
2024-02-02T13:28:22.583Z,7.93
2024-02-02T13:31:05.939Z,8.52
2024-02-02T13:33:37.388Z,7.57
2024-02-02T13:36:10.873Z,6.00
2024-02-02T13:38:41.801Z,8.10
2024-02-02T13:41:09.167Z,7.10
2024-02-02T13:43:39.100Z,6.63
2024-02-02T13:46:08.833Z,7.38
2024-02-02T13:48:41.439Z,8.25
2024-02-02T13:51:11.294Z,8.35
2024-02-02T13:53:38.692Z,8.98
2024-02-02T13:56:06.635Z,10.52
2024-02-02T13:58:44.292Z,6.85
2024-02-02T14:01:19.166Z,11.40
2024-02-02T14:03:50.513Z,7.47
2024-02-02T14:06:17.788Z,5.57
2024-02-02T14:08:51.143Z,7.78
2024-02-02T14:11:22.590Z,6.55
2024-02-02T14:13:50.285Z,9.32
2024-02-02T14:16:22.017Z,7.38
2024-02-02T14:19:10.481Z,7.82
2024-02-02T14:21:41.192Z,8.85
2024-02-02T14:24:13.475Z,7.57
2024-02-02T14:27:00.146Z,6.75
2024-02-02T14:29:27.864Z,6.85
2024-02-02T14:31:56.988Z,6.53
2024-02-02T14:34:26.125Z,5.65
2024-02-02T14:36:56.434Z,9.80
2024-02-02T14:39:27.630Z,8.88
2024-02-02T14:41:59.049Z,6.30
2024-02-02T14:44:29.515Z,7.72
2024-02-02T14:46:57.749Z,6.80
2024-02-02T14:49:26.993Z,9.40
2024-02-02T14:51:57.657Z,5.70
2024-02-02T14:54:25.490Z,7.75
2024-02-02T14:56:53.545Z,10.55
2024-02-02T14:59:33.480Z,8.35
2024-02-02T15:02:00.565Z,6.78
2024-02-02T15:04:27.828Z,7.05
2024-02-02T15:06:55.759Z,9.23
2024-02-02T15:09:23.412Z,7.50
2024-02-02T15:11:51.356Z,7.10
2024-02-02T15:14:21.307Z,10.05
2024-02-02T15:16:48.998Z,8.30
2024-02-02T15:19:17.677Z,8.73
2024-02-02T15:21:45.442Z,9.88
2024-02-02T15:24:12.715Z,9.50
2024-02-02T15:26:40.711Z,9.77
2024-02-02T15:29:09.146Z,6.32
2024-02-02T15:31:36.388Z,10.38
2024-02-02T15:34:07.824Z,10.25
2024-02-02T15:36:36.738Z,14.10
2024-02-02T15:39:19.322Z,10.68
2024-02-02T15:41:54.437Z,8.45
2024-02-02T15:44:21.599Z,6.93
2024-02-02T15:46:48.750Z,9.30
2024-02-02T15:49:16.021Z,8.35
2024-02-02T15:51:44.366Z,10.77
2024-02-02T15:54:11.557Z,9.38
2024-02-02T15:56:38.602Z,9.10
2024-02-02T15:59:06.166Z,13.60
2024-02-02T16:01:33.509Z,10.65
2024-02-02T16:04:00.866Z,9.18
2024-02-02T16:06:29.814Z,13.32
2024-02-02T16:08:57.153Z,6.88
2024-02-02T16:11:25.019Z,8.13
2024-02-02T16:13:53.207Z,9.82
2024-02-02T16:16:20.924Z,9.88
2024-02-02T16:18:48.646Z,7.38
2024-02-02T16:21:15.950Z,8.13
2024-02-02T16:23:42.982Z,7.82
2024-02-02T16:26:11.208Z,9.60
2024-02-02T16:28:38.416Z,9.82
2024-02-02T16:31:05.888Z,12.82
2024-02-02T16:33:33.105Z,8.30
2024-02-02T16:36:00.242Z,13.60
2024-02-02T16:38:28.219Z,9.90
2024-02-02T16:40:55.291Z,9.05
2024-02-02T16:43:22.325Z,10.00
2024-02-02T16:45:50.703Z,10.35
2024-02-02T16:48:19.269Z,11.10
2024-02-02T16:50:46.382Z,10.65
2024-02-02T16:53:13.504Z,10.15
2024-02-02T16:55:41.604Z,14.35
2024-02-02T16:58:09.444Z,9.88
2024-02-02T17:00:38.288Z,13.95
2024-02-02T17:03:05.610Z,14.80
2024-02-02T17:05:32.764Z,12.73
2024-02-02T17:08:02.391Z,12.35
2024-02-02T17:10:30.649Z,8.82
2024-02-02T17:12:57.673Z,12.65
2024-02-02T17:15:25.167Z,12.05
2024-02-02T17:17:52.289Z,10.18
2024-02-02T17:20:19.554Z,10.63
2024-02-02T17:22:46.678Z,10.02
2024-02-02T17:25:13.674Z,9.23
2024-02-02T17:27:42.594Z,7.88
2024-02-02T17:30:10.884Z,8.90
2024-02-02T17:32:39.790Z,9.38
2024-02-02T17:35:09.429Z,8.57
2024-02-02T17:37:36.711Z,9.75
2024-02-02T17:40:05.074Z,12.85
2024-02-02T17:42:32.425Z,11.00
2024-02-02T17:44:59.553Z,14.30
2024-02-02T17:47:26.561Z,16.38
2024-02-02T17:49:56.753Z,13.18
2024-02-02T17:52:25.209Z,13.32
2024-02-02T17:54:52.376Z,10.10
2024-02-02T17:57:19.892Z,9.88
2024-02-02T17:59:57.534Z,9.95
2024-02-02T18:02:25.161Z,9.10
2024-02-02T18:04:54.422Z,6.93
2024-02-02T18:07:25.026Z,8.85
2024-02-02T18:09:57.087Z,8.52
2024-02-02T18:12:24.237Z,10.18
2024-02-02T18:14:51.296Z,10.60
2024-02-02T18:17:19.403Z,10.48
2024-02-02T18:19:46.790Z,10.77
2024-02-02T18:22:14.009Z,7.72
2024-02-02T18:24:41.222Z,11.40
2024-02-02T18:27:08.651Z,9.70
2024-02-02T18:29:35.694Z,7.90
2024-02-02T18:32:02.690Z,7.32
2024-02-02T18:34:29.820Z,7.05
2024-02-02T18:36:57.045Z,8.65
2024-02-02T18:39:24.222Z,6.97
2024-02-02T18:41:51.310Z,7.75
2024-02-02T18:44:21.576Z,8.52
2024-02-02T18:46:48.646Z,10.02
2024-02-02T18:49:15.770Z,8.50
2024-02-02T18:51:46.709Z,8.63
2024-02-02T18:54:14.474Z,13.00
2024-02-02T18:56:41.609Z,11.85
2024-02-02T18:59:11.195Z,12.85
2024-02-02T19:01:38.367Z,7.45
2024-02-02T19:04:05.741Z,8.25
2024-02-02T19:06:39.523Z,7.85
2024-02-02T19:09:10.761Z,12.30
2024-02-02T19:11:37.936Z,9.23
2024-02-02T19:14:12.712Z,5.72
2024-02-02T19:16:41.298Z,8.20
2024-02-02T19:19:09.143Z,11.85
2024-02-02T19:21:36.700Z,9.85
2024-02-02T19:24:05.668Z,6.50
2024-02-02T19:26:32.794Z,8.40
2024-02-02T19:28:59.780Z,7.82
2024-02-02T19:31:28.910Z,9.40
2024-02-02T19:33:57.932Z,9.77
2024-02-02T19:36:27.476Z,9.32
2024-02-02T19:38:58.647Z,9.48
2024-02-02T19:41:29.428Z,5.85
2024-02-02T19:43:57.765Z,9.00
2024-02-02T19:46:26.033Z,9.57
2024-02-02T19:48:57.982Z,9.32
2024-02-02T19:51:27.647Z,11.40
2024-02-02T19:53:55.347Z,10.43
2024-02-02T19:56:22.860Z,9.07
2024-02-02T19:58:50.506Z,7.80
2024-02-02T20:01:19.590Z,9.23
2024-02-02T20:03:49.744Z,8.85
2024-02-02T20:06:18.017Z,10.48
2024-02-02T20:08:47.491Z,10.73
2024-02-02T20:11:16.588Z,9.63
2024-02-02T20:13:44.095Z,7.40
2024-02-02T20:16:14.706Z,10.40
2024-02-02T20:18:42.097Z,9.18
2024-02-02T20:21:09.386Z,7.63
2024-02-02T20:23:40.975Z,8.95
2024-02-02T20:26:10.622Z,7.05
2024-02-02T20:28:38.431Z,10.32
2024-02-02T20:31:05.473Z,11.38
2024-02-02T20:33:32.535Z,10.68
2024-02-02T20:35:59.657Z,13.18
2024-02-02T20:38:26.763Z,10.18
2024-02-02T20:40:55.520Z,8.65
2024-02-02T20:43:24.708Z,12.07
2024-02-02T20:45:55.031Z,9.82
2024-02-02T20:48:24.712Z,10.02
2024-02-02T20:50:52.691Z,8.30
2024-02-02T20:53:20.152Z,10.25
2024-02-02T20:55:48.227Z,10.75
2024-02-02T20:58:16.483Z,10.85
2024-02-02T21:00:45.265Z,7.55
2024-02-02T21:03:14.547Z,10.40
2024-02-02T21:05:42.382Z,6.75
2024-02-02T21:08:09.448Z,10.02
2024-02-02T21:10:36.867Z,9.77
2024-02-02T21:13:04.860Z,7.43
2024-02-02T21:15:36.511Z,7.80
2024-02-02T21:18:09.876Z,8.25
2024-02-02T21:20:44.722Z,9.32
2024-02-02T21:23:19.102Z,8.85
2024-02-02T21:25:48.324Z,14.02
2024-02-02T21:28:20.683Z,9.88
2024-02-02T21:30:48.368Z,7.25
2024-02-02T21:33:21.186Z,10.85
2024-02-02T21:35:49.339Z,8.75
2024-02-02T21:38:16.871Z,7.53
2024-02-02T21:40:44.148Z,12.07
2024-02-02T21:43:13.841Z,8.02
2024-02-02T21:45:41.525Z,8.20
2024-02-02T21:48:11.808Z,10.73
2024-02-02T21:50:39.924Z,13.40
2024-02-02T21:53:11.744Z,8.40
2024-02-02T21:55:38.696Z,8.80
2024-02-02T21:58:05.864Z,9.40
2024-02-02T22:00:34.482Z,8.93
2024-02-02T22:03:02.011Z,11.57
2024-02-02T22:05:30.614Z,12.27
2024-02-02T22:07:59.713Z,10.77
2024-02-02T22:10:28.651Z,12.35
2024-02-02T22:12:59.801Z,8.95
2024-02-02T22:15:28.056Z,10.48
2024-02-02T22:17:55.279Z,12.35
2024-02-02T22:20:23.738Z,9.45
2024-02-02T22:22:51.044Z,14.48
2024-02-02T22:25:18.204Z,10.85
2024-02-02T22:27:45.764Z,13.07
2024-02-02T22:30:13.560Z,11.45
2024-02-02T22:32:40.622Z,11.68
2024-02-02T22:35:08.035Z,12.25
2024-02-02T22:37:35.057Z,12.75
2024-02-02T22:40:02.097Z,10.35
2024-02-02T22:42:30.118Z,11.18
2024-02-02T22:44:57.979Z,12.27
2024-02-02T22:47:27.257Z,12.95
2024-02-02T22:49:56.067Z,13.02
2024-02-02T22:52:25.357Z,9.10
2024-02-02T22:54:54.252Z,9.90
2024-02-02T22:57:23.620Z,12.18
2024-02-02T22:59:57.055Z,14.30
2024-02-02T23:02:29.550Z,11.00
2024-02-02T23:04:57.927Z,11.50
2024-02-02T23:07:25.136Z,11.27
2024-02-02T23:09:52.178Z,13.13
2024-02-02T23:12:20.042Z,17.00
2024-02-02T23:14:47.256Z,12.13
2024-02-02T23:17:15.565Z,12.57
2024-02-02T23:19:45.296Z,15.80
2024-02-02T23:22:12.668Z,14.85
2024-02-02T23:24:42.052Z,10.68
2024-02-02T23:27:12.478Z,11.85
2024-02-02T23:29:39.602Z,10.80
2024-02-02T23:32:07.154Z,13.27
2024-02-02T23:34:34.155Z,13.13
2024-02-02T23:37:01.250Z,11.77
2024-02-02T23:39:28.321Z,12.10
2024-02-02T23:41:55.410Z,10.48
2024-02-02T23:44:22.381Z,10.27
2024-02-02T23:46:49.342Z,11.25
2024-02-02T23:49:18.332Z,11.07
2024-02-02T23:51:45.938Z,10.93
2024-02-02T23:54:13.940Z,10.48
2024-02-02T23:56:41.225Z,9.75
2024-02-02T23:59:08.298Z,12.80
